< < Back
Terminal Aerodrome Forecast


Current Version              Previous Versions:   1  2  3  4  5  6  7  8  9  

Terminal Aerodrome Forecast

861
FTUS42 KCAE 041123
TAFCAE
TAF
KCAE 041123Z 0412/0512 24009KT P6SM VCSH SCT045 OVC100
     FM041500 24012G20KT P6SM SCT100 BKN250
     FM041800 24014G23KT P6SM VCSH SCT045 BKN250
     FM050000 24010KT P6SM SCT070 BKN250
     FM050600 VRB04KT P6SM SCT120 BKN250=



Latest METAR

490
SAUS80 KWBC 041500
MTRCAE
METAR KCAE 041456Z 24007KT 10SM OVC130 26/19 A3006 RMK AO2 SLP176
T02610194 53013 $


USA.gov is the U.S. government's official web portal to all federal, state and local government web resources and services.